Time;durP1;ratioP1;P1;durP2;ratioP2;P2;SDS_P1;SDS_P2;PMS_P1;PMS_P2;Temp;Humidity;BMP_temperature;BMP_pressure;BME280_temperature;BME280_humidity;BME280_pressure;Samples;Min_cycle;Max_cycle;Signal;HPM_P1;HPM_P2
2023/03/12 00:01:12;;;;;;;11.38;5.13;;;;;;;4.20;85.55;101153.09;5009225;28;20550;-64
2023/03/12 00:03:39;;;;;;;8.77;4.75;;;;;;;4.26;85.69;101147.88;5043445;28;20040;-63
2023/03/12 00:06:05;;;;;;;19.23;5.35;;;;;;;4.25;85.45;101146.09;5026255;28;20129;-61
2023/03/12 00:08:30;;;;;;;8.48;4.60;;;;;;;4.26;85.91;101145.25;5032699;28;20461;-63
2023/03/12 00:10:55;;;;;;;9.90;4.50;;;;;;;4.22;85.91;101146.13;5028405;28;20485;-61
2023/03/12 00:13:21;;;;;;;10.63;4.85;;;;;;;4.18;87.22;101149.59;5028726;28;20497;-61
2023/03/12 00:15:46;;;;;;;11.55;5.22;;;;;;;4.20;87.04;101150.47;5046212;28;20025;-61
2023/03/12 00:18:11;;;;;;;20.05;5.25;;;;;;;4.21;87.52;101161.78;5027517;28;20104;-62
2023/03/12 00:20:37;;;;;;;12.48;5.18;;;;;;;4.23;87.87;101154.81;5046596;28;20090;-61
2023/03/12 00:23:02;;;;;;;11.38;4.93;;;;;;;4.24;88.65;101157.41;5046025;28;20025;-64
2023/03/12 00:25:27;;;;;;;17.60;6.00;;;;;;;4.20;88.97;101145.25;5045126;28;20309;-62
2023/03/12 00:27:53;;;;;;;11.73;4.60;;;;;;;4.17;89.77;101138.31;5047102;28;20105;-61
2023/03/12 00:30:18;;;;;;;10.15;5.05;;;;;;;4.17;89.90;101129.63;5030360;28;20418;-63
2023/03/12 00:32:43;;;;;;;8.65;4.85;;;;;;;4.23;90.03;101127.00;5027008;28;20018;-63
2023/03/12 00:35:09;;;;;;;9.48;5.13;;;;;;;4.20;91.09;101123.50;5043699;28;20579;-63
2023/03/12 00:37:37;;;;;;;6.53;4.68;;;;;;;4.14;91.84;101121.78;5047147;28;20029;-63
2023/03/12 00:40:04;;;;;;;10.02;4.93;;;;;;;4.11;91.98;101120.06;5044598;28;20104;-61
2023/03/12 00:42:30;;;;;;;10.70;4.85;;;;;;;4.09;92.57;101113.97;5038490;28;20031;-62
2023/03/12 00:44:55;;;;;;;11.07;4.90;;;;;;;4.09;93.25;101111.38;5046670;28;20037;-60
2023/03/12 00:47:20;;;;;;;10.52;4.65;;;;;;;4.02;93.85;101115.75;5046150;28;20028;-62
2023/03/12 00:49:46;;;;;;;6.68;4.32;;;;;;;4.03;94.04;101108.78;5045440;28;20492;-60
2023/03/12 00:52:11;;;;;;;13.85;5.10;;;;;;;4.06;94.51;101108.78;5046470;28;20380;-62
2023/03/12 00:54:36;;;;;;;11.57;4.78;;;;;;;4.00;94.95;101106.19;5047098;28;20040;-63
2023/03/12 00:57:02;;;;;;;7.13;3.72;;;;;;;3.97;95.92;101103.59;5038984;28;20029;-61
2023/03/12 00:59:27;;;;;;;6.97;4.43;;;;;;;4.02;95.66;101097.50;5050277;28;20545;-62
2023/03/12 01:01:53;;;;;;;10.82;4.60;;;;;;;3.99;95.89;101100.09;5050528;28;20047;-60
2023/03/12 01:04:18;;;;;;;7.03;4.25;;;;;;;4.03;96.59;101106.16;5048656;28;20707;-60
2023/03/12 01:06:44;;;;;;;12.25;5.05;;;;;;;4.00;96.57;101103.59;5046876;28;20355;-60
2023/03/12 01:09:09;;;;;;;11.63;4.43;;;;;;;4.02;96.25;101113.13;5046197;28;20028;-61
2023/03/12 01:11:36;;;;;;;13.13;4.32;;;;;;;4.02;96.63;101113.13;5050081;28;20091;-59
2023/03/12 01:14:03;;;;;;;7.90;4.38;;;;;;;3.94;98.40;101114.88;5048903;28;20025;-61
2023/03/12 01:16:29;;;;;;;8.77;4.00;;;;;;;3.94;98.14;101120.09;5050380;28;20029;-62
2023/03/12 01:18:58;;;;;;;8.45;4.70;;;;;;;4.02;97.77;101107.94;5030349;28;20090;-62
2023/03/12 01:21:24;;;;;;;9.40;4.28;;;;;;;3.99;97.86;101110.53;5035484;28;20071;-61
2023/03/12 01:23:50;;;;;;;12.55;4.72;;;;;;;3.99;98.44;101101.84;5049934;28;20028;-60
2023/03/12 01:26:15;;;;;;;12.85;4.40;;;;;;;3.97;98.40;101087.94;5044223;28;20566;-61
2023/03/12 01:28:41;;;;;;;9.38;4.35;;;;;;;4.06;98.02;101080.09;5028680;28;20033;-63
2023/03/12 01:31:12;;;;;;;12.05;4.75;;;;;;;4.06;98.38;101092.28;5049616;28;20132;-59
2023/03/12 01:33:38;;;;;;;10.68;4.20;;;;;;;4.01;99.01;101095.72;5045411;28;20029;-62
2023/03/12 01:36:04;;;;;;;9.82;4.47;;;;;;;3.96;99.52;101084.47;5048169;28;20022;-62
2023/03/12 01:38:29;;;;;;;9.88;4.35;;;;;;;4.02;99.78;101076.63;5048398;28;20111;-61
2023/03/12 01:40:55;;;;;;;9.90;4.65;;;;;;;4.04;99.72;101064.44;5049835;28;20104;-61
2023/03/12 01:43:23;;;;;;;5.72;3.72;;;;;;;4.12;99.46;101067.03;5048976;28;20029;-61
2023/03/12 01:46:04;;;;;;;7.45;4.05;;;;;;;4.00;99.99;101073.16;5048971;28;20025;-60
2023/03/12 01:48:33;;;;;;;8.40;4.10;;;;;;;4.06;100.00;101071.41;5038372;28;20121;-61
2023/03/12 01:50:58;;;;;;;;;;;;;;;4.04;100.00;101069.66;5010751;28;20036;-61
2023/03/12 01:53:24;;;;;;;15.95;3.88;;;;;;;3.97;100.00;101062.72;5025245;28;19917;-61
2023/03/12 01:55:49;;;;;;;6.82;3.80;;;;;;;4.04;99.77;101054.00;5049505;28;20520;-60
2023/03/12 01:58:15;;;;;;;9.48;4.10;;;;;;;4.01;100.00;101054.00;5048733;28;20020;-61
2023/03/12 02:00:41;;;;;;;7.55;4.25;;;;;;;4.07;100.00;101047.06;5048340;28;20064;-58
2023/03/12 02:03:07;;;;;;;11.43;4.25;;;;;;;4.10;99.99;101042.72;5031902;28;20088;-60
2023/03/12 02:05:42;;;;;;;9.18;4.15;;;;;;;4.03;100.00;101028.81;5029434;28;20519;-62
2023/03/12 02:08:09;;;;;;;9.02;4.28;;;;;;;4.09;100.00;101037.50;5029406;28;20423;-61
2023/03/12 02:10:34;;;;;;;8.32;4.32;;;;;;;4.06;100.00;101032.28;5032446;28;20072;-61
2023/03/12 02:13:00;;;;;;;10.90;4.30;;;;;;;4.08;100.00;101028.81;5040059;28;20029;-62
2023/03/12 02:15:25;;;;;;;7.72;3.72;;;;;;;4.03;100.00;101015.78;5031631;28;20021;-63
2023/03/12 02:17:51;;;;;;;11.80;4.03;;;;;;;4.06;100.00;101014.03;5042621;28;20025;-62
2023/03/12 02:20:20;;;;;;;10.75;3.65;;;;;;;3.94;100.00;101000.16;5014733;28;20021;-62
2023/03/12 02:22:50;;;;;;;7.10;3.42;;;;;;;3.95;100.00;100995.81;5049228;28;20025;-60
2023/03/12 02:25:30;;;;;;;9.82;4.00;;;;;;;3.99;100.00;100990.59;5030295;28;20025;-62
2023/03/12 02:27:57;;;;;;;7.13;3.75;;;;;;;4.06;99.96;100994.03;5029640;28;20428;-60
2023/03/12 02:30:23;;;;;;;8.45;3.97;;;;;;;4.17;100.00;100981.81;5030616;28;20032;-62
2023/03/12 02:32:49;;;;;;;8.88;3.78;;;;;;;4.26;99.43;100995.69;5048323;28;20025;-62
2023/03/12 02:35:15;;;;;;;10.55;4.03;;;;;;;4.13;98.91;100994.88;5028477;28;20075;-62
2023/03/12 02:37:54;;;;;;;7.95;3.40;;;;;;;4.20;97.67;100995.69;5023539;28;20030;-62
2023/03/12 02:40:40;;;;;;;9.60;3.38;;;;;;;4.26;96.72;100991.34;5034142;28;20037;-60
2023/03/12 02:43:06;;;;;;;10.75;3.30;;;;;;;4.21;96.82;100985.25;5027158;28;20064;-60
2023/03/12 02:45:32;;;;;;;15.68;3.55;;;;;;;4.13;97.81;100987.06;5026330;28;20458;-62
2023/03/12 02:47:58;;;;;;;9.07;4.28;;;;;;;4.20;97.91;100985.28;5029096;28;20299;-62
2023/03/12 02:50:23;;;;;;;14.13;3.67;;;;;;;4.19;97.20;100986.16;5038928;28;20504;-61
2023/03/12 02:52:49;;;;;;;7.45;3.17;;;;;;;4.19;97.61;100992.25;5028990;28;20043;-61
2023/03/12 02:55:14;;;;;;;12.85;3.85;;;;;;;4.10;98.17;100984.47;5030817;28;20024;-62
2023/03/12 02:57:39;;;;;;;26.95;3.88;;;;;;;4.17;98.08;100984.44;5048037;28;20021;-62
2023/03/12 03:00:13;;;;;;;5.75;2.88;;;;;;;4.21;99.19;100979.19;5047706;28;20025;-63
2023/03/12 03:02:39;;;;;;;7.80;2.97;;;;;;;4.10;100.00;100969.69;5045248;28;20045;-62
2023/03/12 03:05:05;;;;;;;6.60;3.17;;;;;;;4.09;100.00;100967.94;5047802;28;20029;-61
2023/03/12 03:07:31;;;;;;;6.85;3.10;;;;;;;3.96;100.00;100963.66;5047204;28;20028;-62
2023/03/12 03:10:02;;;;;;;8.68;2.78;;;;;;;4.00;100.00;100963.63;5046549;28;20389;-62
2023/03/12 03:12:28;;;;;;;7.95;3.00;;;;;;;4.04;100.00;100962.72;5047625;28;20029;-63
2023/03/12 03:14:54;;;;;;;10.45;3.15;;;;;;;4.09;100.00;100956.66;5047032;28;20073;-60
2023/03/12 03:17:22;;;;;;;11.15;3.40;;;;;;;4.19;100.00;100958.34;5046650;28;20441;-60
2023/03/12 03:19:47;;;;;;;9.98;3.17;;;;;;;4.13;100.00;100942.72;5047098;28;20033;-61
2023/03/12 03:22:12;;;;;;;7.47;2.85;;;;;;;4.18;100.00;100933.09;5046811;28;20420;-63
2023/03/12 03:24:41;;;;;;;9.02;3.35;;;;;;;4.00;100.00;100927.13;5047067;28;20029;-61
2023/03/12 03:27:07;;;;;;;5.13;2.40;;;;;;;4.15;100.00;100920.97;5048391;28;20078;-62
2023/03/12 03:29:32;;;;;;;10.38;3.40;;;;;;;4.19;100.00;100927.03;5046656;28;20116;-63
2023/03/12 03:31:57;;;;;;;5.10;2.63;;;;;;;4.11;100.00;100919.25;5046492;28;20724;-63
2023/03/12 03:34:23;;;;;;;6.38;2.75;;;;;;;4.13;100.00;100908.81;5040523;28;20044;-62
2023/03/12 03:36:48;;;;;;;3.38;2.50;;;;;;;4.13;100.00;100907.06;5033232;28;20473;-60
2023/03/12 03:39:13;;;;;;;6.15;3.10;;;;;;;4.08;100.00;100911.44;5047343;28;20161;-61
2023/03/12 03:41:39;;;;;;;10.07;2.97;;;;;;;4.11;100.00;100907.94;5028918;28;20104;-62
2023/03/12 03:44:06;;;;;;;6.25;3.10;;;;;;;4.14;100.00;100900.09;5046357;28;20108;-62
2023/03/12 03:46:34;;;;;;;7.25;3.00;;;;;;;4.11;100.00;100892.28;5047476;28;20021;-61
2023/03/12 03:48:59;;;;;;;6.07;3.00;;;;;;;3.94;100.00;100880.22;5041954;28;20127;-59
2023/03/12 03:51:25;;;;;;;11.45;3.38;;;;;;;3.97;100.00;100879.34;5029642;28;20180;-62
2023/03/12 03:53:50;;;;;;;4.15;2.85;;;;;;;3.97;100.00;100881.97;5047188;28;20029;-61
2023/03/12 03:56:16;;;;;;;10.35;3.55;;;;;;;3.88;100.00;100877.63;5045907;28;20033;-62
2023/03/12 03:58:41;;;;;;;10.50;3.40;;;;;;;3.92;100.00;100882.84;5047610;28;20025;-61
2023/03/12 04:01:07;;;;;;;7.63;2.95;;;;;;;4.00;100.00;100868.91;5042837;28;20083;-60
2023/03/12 04:03:33;;;;;;;7.70;3.53;;;;;;;3.96;100.00;100873.25;5046764;28;20059;-61
2023/03/12 04:06:00;;;;;;;9.00;3.40;;;;;;;3.97;100.00;100864.56;5028847;28;20059;-62
2023/03/12 04:08:26;;;;;;;8.38;3.50;;;;;;;3.93;100.00;100865.47;5045756;28;20062;-61
2023/03/12 04:10:52;;;;;;;9.05;3.53;;;;;;;4.00;100.00;100859.34;5046967;28;20082;-62
2023/03/12 04:13:17;;;;;;;9.18;2.95;;;;;;;4.01;100.00;100863.66;5045881;28;20107;-62
2023/03/12 04:15:47;;;;;;;8.60;3.30;;;;;;;3.97;100.00;100859.34;5047612;28;20025;-62
2023/03/12 04:18:13;;;;;;;5.60;3.30;;;;;;;3.92;100.00;100863.75;5043226;28;20147;-62
2023/03/12 04:20:38;;;;;;;10.52;3.70;;;;;;;3.94;100.00;100858.53;5046712;28;20040;-62
2023/03/12 04:23:03;;;;;;;9.15;3.03;;;;;;;3.95;100.00;100860.25;5047486;28;20029;-61
2023/03/12 04:25:29;;;;;;;12.82;3.60;;;;;;;3.88;100.00;100862.88;5045305;28;20042;-63
2023/03/12 04:27:54;;;;;;;9.40;3.15;;;;;;;3.97;100.00;100855.91;5046924;28;20036;-62
2023/03/12 04:30:19;;;;;;;5.75;3.38;;;;;;;3.96;100.00;100852.41;5029330;28;20055;-62
2023/03/12 04:32:45;;;;;;;8.10;3.55;;;;;;;3.95;100.00;100850.69;5042763;28;20412;-61
2023/03/12 04:35:10;;;;;;;10.40;3.55;;;;;;;3.90;100.00;100845.50;5050136;28;20033;-62
2023/03/12 04:37:35;;;;;;;8.02;3.85;;;;;;;3.87;100.00;100839.41;5050411;28;20040;-62
2023/03/12 04:40:03;;;;;;;6.55;3.40;;;;;;;3.84;100.00;100832.50;5049866;28;20027;-62
2023/03/12 04:42:29;;;;;;;14.70;4.13;;;;;;;3.84;100.00;100818.59;5050953;28;20366;-61
2023/03/12 04:44:54;;;;;;;8.07;3.78;;;;;;;3.85;100.00;100815.13;5049639;28;20082;-62
2023/03/12 04:47:20;;;;;;;12.73;4.38;;;;;;;3.83;100.00;100802.09;5050812;28;20036;-62
2023/03/12 04:49:45;;;;;;;10.27;4.78;;;;;;;3.78;100.00;100794.31;5049937;28;20025;-59
2023/03/12 04:52:10;;;;;;;10.20;4.25;;;;;;;3.84;100.00;100797.72;5048719;28;20036;-61
2023/03/12 04:54:36;;;;;;;14.55;4.47;;;;;;;3.72;100.00;100791.72;5050986;28;20577;-60
2023/03/12 04:57:01;;;;;;;12.15;4.78;;;;;;;3.71;100.00;100790.00;5032108;28;20084;-60
2023/03/12 04:59:27;;;;;;;8.98;4.78;;;;;;;3.61;100.00;100783.97;5048420;28;20571;-60
2023/03/12 05:01:52;;;;;;;9.43;4.30;;;;;;;3.62;100.00;100790.06;5049953;28;20072;-61
2023/03/12 05:04:17;;;;;;;10.98;5.07;;;;;;;3.71;100.00;100795.22;5047867;28;20036;-60
2023/03/12 05:06:42;;;;;;;12.50;6.53;;;;;;;3.66;100.00;100795.25;5032187;28;20025;-62
2023/03/12 05:09:08;;;;;;;11.25;5.50;;;;;;;3.62;100.00;100798.75;5031500;28;20021;-61
2023/03/12 05:11:33;;;;;;;18.13;5.63;;;;;;;3.60;100.00;100792.66;5048763;28;20029;-57
2023/03/12 05:13:58;;;;;;;9.20;5.03;;;;;;;3.64;100.00;100798.72;5050458;28;20123;-60
2023/03/12 05:16:24;;;;;;;10.27;6.07;;;;;;;3.54;100.00;100803.13;5049547;28;20021;-61
2023/03/12 05:18:49;;;;;;;12.70;5.43;;;;;;;3.64;100.00;100794.38;5048175;28;20091;-61
2023/03/12 05:21:17;;;;;;;11.77;5.85;;;;;;;3.64;100.00;100794.38;5050081;28;20017;-60
2023/03/12 05:23:43;;;;;;;14.82;5.78;;;;;;;3.68;100.00;100790.03;5049446;28;20037;-60
2023/03/12 05:26:20;;;;;;;15.52;6.10;;;;;;;3.63;100.00;100794.38;5048485;28;20021;-62
2023/03/12 05:28:46;;;;;;;17.48;5.80;;;;;;;3.56;100.00;100787.47;5032166;28;20028;-61
2023/03/12 05:31:12;;;;;;;10.50;6.25;;;;;;;3.70;100.00;100787.41;5049195;28;20048;-56
2023/03/12 05:33:38;;;;;;;9.00;5.65;;;;;;;3.79;100.00;100798.63;5038433;28;20025;-61
2023/03/12 05:36:03;;;;;;;13.48;6.20;;;;;;;3.82;100.00;100796.91;5050082;28;20115;-62
2023/03/12 05:38:29;;;;;;;12.02;6.07;;;;;;;3.64;100.00;100783.94;5048891;28;20017;-61
2023/03/12 05:40:58;;;;;;;15.05;6.65;;;;;;;3.75;100.00;100786.50;5047886;28;20035;-61
2023/03/12 05:43:23;;;;;;;12.90;6.55;;;;;;;3.77;100.00;100789.09;5049072;28;20036;-63
2023/03/12 05:45:49;;;;;;;16.83;6.25;;;;;;;3.76;100.00;100784.75;5047619;28;20017;-59
2023/03/12 05:48:14;;;;;;;15.75;7.53;;;;;;;3.63;100.00;100778.75;5030885;28;20091;-61
2023/03/12 05:50:40;;;;;;;9.45;6.38;;;;;;;3.59;100.00;100779.66;5048199;28;20025;-61
2023/03/12 05:53:05;;;;;;;10.27;7.00;;;;;;;3.53;100.00;100773.59;5047781;28;20016;-57
2023/03/12 05:55:34;;;;;;;11.43;7.05;;;;;;;3.63;100.00;100771.81;5049022;28;20029;-59
2023/03/12 05:57:59;;;;;;;19.92;7.40;;;;;;;3.55;100.00;100773.56;5048055;28;20036;-60
2023/03/12 06:00:25;;;;;;;8.90;7.25;;;;;;;3.61;100.00;100776.16;5047499;28;20017;-61
2023/03/12 06:02:50;;;;;;;15.85;7.55;;;;;;;3.63;100.00;100774.41;5048478;28;20052;-59
2023/03/12 06:05:15;;;;;;;12.88;7.97;;;;;;;3.50;100.00;100777.97;5029005;28;20068;-61
2023/03/12 06:07:41;;;;;;;13.48;7.68;;;;;;;3.59;100.00;100779.66;5014203;28;20029;-59
2023/03/12 06:10:07;;;;;;;16.98;8.13;;;;;;;3.60;100.00;100768.34;5045307;28;20032;-62
2023/03/12 06:12:32;;;;;;;15.57;8.70;;;;;;;3.53;100.00;100770.97;5048329;28;20429;-60
2023/03/12 06:14:57;;;;;;;18.35;9.20;;;;;;;3.58;100.00;100772.72;5048752;28;20116;-59
2023/03/12 06:17:23;;;;;;;13.50;8.32;;;;;;;3.58;100.00;100770.94;5048013;28;20113;-61
2023/03/12 06:19:52;;;;;;;16.10;8.32;;;;;;;3.58;100.00;100763.13;5047791;28;20090;-62
2023/03/12 06:22:17;;;;;;;18.02;9.10;;;;;;;3.68;100.00;100758.75;5048365;28;20017;-60
2023/03/12 06:24:46;;;;;;;16.05;10.05;;;;;;;3.69;100.00;100768.28;5047390;28;20594;-62
2023/03/12 06:27:12;;;;;;;13.27;9.10;;;;;;;3.73;100.00;100754.34;5048411;28;20433;-61
2023/03/12 06:29:37;;;;;;;17.25;9.93;;;;;;;3.64;100.00;100757.00;5030594;28;20064;-61
2023/03/12 06:32:02;;;;;;;18.92;9.85;;;;;;;3.66;100.00;100739.63;5048861;28;20108;-61
2023/03/12 06:34:28;;;;;;;17.42;10.50;;;;;;;3.65;100.00;100737.91;5046771;28;20124;-59
2023/03/12 06:36:53;;;;;;;17.17;10.90;;;;;;;3.64;100.00;100728.34;5048739;28;20032;-60
2023/03/12 06:39:18;;;;;;;19.58;11.57;;;;;;;3.54;100.00;100728.44;5046955;28;20032;-60
2023/03/12 06:41:44;;;;;;;18.92;10.63;;;;;;;3.71;100.00;100727.47;5048337;28;20037;-61
2023/03/12 06:44:09;;;;;;;18.05;10.38;;;;;;;3.76;100.00;100725.66;5048297;28;20036;-62
2023/03/12 06:46:35;;;;;;;21.77;11.52;;;;;;;3.78;100.00;100729.13;5048844;28;20167;-61
2023/03/12 06:49:01;;;;;;;19.85;11.70;;;;;;;3.90;100.00;100722.97;5046545;28;20477;-62
2023/03/12 06:51:26;;;;;;;16.15;11.38;;;;;;;3.78;100.00;100723.94;5048125;28;20055;-61
2023/03/12 06:53:52;;;;;;;16.63;11.57;;;;;;;3.89;100.00;100728.19;5048131;28;20029;-61
2023/03/12 06:56:17;;;;;;;21.42;12.10;;;;;;;3.91;100.00;100729.91;5047439;28;20033;-61
2023/03/12 06:58:43;;;;;;;20.70;10.93;;;;;;;3.98;100.00;100738.56;5048651;28;20111;-62
2023/03/12 07:01:08;;;;;;;21.63;11.00;;;;;;;4.13;100.00;100732.31;5048389;28;20028;-64
2023/03/12 07:03:34;;;;;;;17.83;11.38;;;;;;;4.02;100.00;100732.44;5047361;28;20039;-62
2023/03/12 07:06:00;;;;;;;18.95;11.55;;;;;;;4.17;100.00;100741.00;5047072;28;20451;-63
2023/03/12 07:08:29;;;;;;;14.73;11.63;;;;;;;4.25;100.00;100733.94;5047260;28;20436;-62
2023/03/12 07:10:55;;;;;;;15.77;11.52;;;;;;;4.18;100.00;100740.09;5046557;28;20040;-61
2023/03/12 07:13:20;;;;;;;19.88;12.35;;;;;;;4.30;100.00;100739.13;5047164;28;20473;-62
2023/03/12 07:15:46;;;;;;;19.67;11.77;;;;;;;4.36;100.00;100751.28;5047023;28;20032;-61
2023/03/12 07:18:11;;;;;;;13.77;11.00;;;;;;;4.30;100.00;100750.44;5045961;28;20021;-60
2023/03/12 07:20:41;;;;;;;16.75;11.43;;;;;;;4.43;100.00;100752.94;5047626;28;20029;-60
2023/03/12 07:23:07;;;;;;;22.73;12.25;;;;;;;4.39;100.00;100762.53;5047551;28;20307;-61
2023/03/12 07:25:37;;;;;;;22.80;12.05;;;;;;;4.34;100.00;100737.38;5046345;28;20473;-61
2023/03/12 07:28:03;;;;;;;17.20;11.52;;;;;;;4.45;100.00;100743.34;5029156;28;20024;-62
2023/03/12 07:30:32;;;;;;;17.83;11.88;;;;;;;4.51;100.00;100740.66;5046693;28;20432;-60
2023/03/12 07:32:58;;;;;;;16.48;11.30;;;;;;;4.51;100.00;100735.44;5045731;28;20021;-63
2023/03/12 07:35:24;;;;;;;17.67;11.82;;;;;;;4.53;100.00;100744.13;5046667;28;20500;-62
2023/03/12 07:37:49;;;;;;;18.52;12.60;;;;;;;4.57;100.00;100744.09;5046732;28;20060;-60
2023/03/12 07:40:14;;;;;;;17.88;12.35;;;;;;;4.67;100.00;100743.13;5046011;28;20036;-60
2023/03/12 07:42:40;;;;;;;20.83;12.63;;;;;;;4.67;100.00;100745.75;5047134;28;20059;-61
2023/03/12 07:45:06;;;;;;;20.80;12.20;;;;;;;4.61;100.00;100751.03;5046805;28;20128;-62
2023/03/12 07:47:32;;;;;;;19.98;12.32;;;;;;;4.72;100.00;100743.94;5045982;28;20033;-59
2023/03/12 07:49:57;;;;;;;21.92;12.85;;;;;;;4.72;100.00;100749.16;5046493;28;20348;-60
2023/03/12 07:52:22;;;;;;;24.23;12.95;;;;;;;4.75;100.00;100749.13;5045423;28;20071;-61
2023/03/12 07:54:48;;;;;;;23.90;13.38;;;;;;;4.78;100.00;100758.66;5046446;28;20025;-61
2023/03/12 07:57:13;;;;;;;21.02;13.07;;;;;;;4.84;100.00;100762.97;5046347;28;20444;-60
2023/03/12 07:59:39;;;;;;;27.17;14.30;;;;;;;4.86;100.00;100762.06;5046553;28;20021;-62
2023/03/12 08:02:04;;;;;;;22.75;14.50;;;;;;;4.84;100.00;100745.53;5046520;28;20064;-63
2023/03/12 08:04:29;;;;;;;23.60;13.95;;;;;;;4.82;100.00;100752.53;5045167;28;20029;-62
2023/03/12 08:06:55;;;;;;;24.58;14.63;;;;;;;4.96;100.00;100760.19;5046774;28;20272;-61
2023/03/12 08:09:20;;;;;;;20.95;14.27;;;;;;;5.03;100.00;100761.00;5046201;28;20028;-60
2023/03/12 08:11:46;;;;;;;23.52;15.38;;;;;;;5.08;100.00;100758.34;5046367;28;20017;-62
2023/03/12 08:14:11;;;;;;;27.58;14.90;;;;;;;5.13;100.00;100764.34;5046303;28;20019;-62
2023/03/12 08:16:37;;;;;;;22.98;14.77;;;;;;;5.29;100.00;100765.00;5046555;28;20021;-60
2023/03/12 08:19:02;;;;;;;32.15;17.55;;;;;;;5.35;100.00;100756.22;5027815;28;20173;-62
2023/03/12 08:21:27;;;;;;;27.35;17.27;;;;;;;5.54;100.00;100760.31;5046200;28;20557;-59
2023/03/12 08:23:53;;;;;;;25.95;16.88;;;;;;;5.64;100.00;100762.81;5046079;28;20017;-60
2023/03/12 08:26:18;;;;;;;35.50;17.15;;;;;;;5.77;100.00;100777.44;5046050;28;20465;-62
2023/03/12 08:28:43;;;;;;;33.85;17.15;;;;;;;5.91;100.00;100768.50;5045972;28;20435;-60
2023/03/12 08:31:08;;;;;;;30.13;18.20;;;;;;;5.91;100.00;100771.13;5046279;28;20539;-62
2023/03/12 08:33:34;;;;;;;31.20;18.23;;;;;;;5.99;100.00;100766.63;5045574;28;20033;-62
2023/03/12 08:35:59;;;;;;;31.73;19.17;;;;;;;6.10;100.00;100765.63;5046178;28;20033;-61
2023/03/12 08:38:25;;;;;;;32.20;18.70;;;;;;;6.19;100.00;100768.09;5045742;28;20025;-60
2023/03/12 08:40:57;;;;;;;37.33;21.17;;;;;;;6.32;100.00;100780.06;5045754;28;20013;-59
2023/03/12 08:43:23;;;;;;;37.33;19.85;;;;;;;6.31;100.00;100780.09;5046290;28;20025;-60
2023/03/12 08:45:59;;;;;;;36.72;21.92;;;;;;;6.43;100.00;100789.50;5046436;28;20078;-59
2023/03/12 08:48:26;;;;;;;36.03;20.73;;;;;;;6.51;100.00;100792.88;5045110;28;20110;-61
2023/03/12 08:50:54;;;;;;;36.90;21.95;;;;;;;6.62;100.00;100787.41;5046908;28;20117;-62
2023/03/12 08:53:19;;;;;;;47.53;24.17;;;;;;;6.65;100.00;100782.13;5046838;28;20024;-60
2023/03/12 08:55:45;;;;;;;41.78;23.80;;;;;;;6.76;100.00;100781.94;5045899;28;20104;-61
2023/03/12 08:58:10;;;;;;;46.55;25.25;;;;;;;6.90;100.00;100780.81;5045701;28;20098;-61
2023/03/12 09:00:35;;;;;;;45.40;25.30;;;;;;;7.00;100.00;100781.47;5046845;28;20029;-61
2023/03/12 09:03:01;;;;;;;50.33;25.60;;;;;;;7.24;100.00;100772.25;5026719;28;20141;-61
2023/03/12 09:05:29;;;;;;;46.75;25.33;;;;;;;7.39;100.00;100763.19;5045844;28;20074;-60
2023/03/12 09:07:56;;;;;;;41.95;23.52;;;;;;;7.69;100.00;100765.16;5039509;28;20049;-59
2023/03/12 09:10:22;;;;;;;38.33;22.50;;;;;;;7.90;100.00;100757.69;5035775;28;20029;-60
2023/03/12 09:12:48;;;;;;;36.40;21.75;;;;;;;8.04;100.00;100763.44;5045900;28;20028;-61
2023/03/12 09:15:15;;;;;;;34.42;19.05;;;;;;;8.31;100.00;100776.78;5036016;28;20433;-59
2023/03/12 09:17:40;;;;;;;38.38;20.52;;;;;;;8.43;100.00;100777.41;5037478;28;20031;-60
2023/03/12 09:20:08;;;;;;;33.38;17.92;;;;;;;8.39;100.00;100778.34;5038783;28;20039;-60
2023/03/12 09:22:35;;;;;;;35.45;16.92;;;;;;;8.47;100.00;100782.53;5049041;28;20029;-60
2023/03/12 09:25:02;;;;;;;31.60;16.88;;;;;;;8.47;100.00;100785.16;5046164;28;20036;-60
2023/03/12 09:27:28;;;;;;;27.60;16.38;;;;;;;8.49;100.00;100782.47;5022334;28;20029;-59
2023/03/12 09:29:55;;;;;;;33.63;15.68;;;;;;;8.62;100.00;100782.19;5029345;28;20021;-60
2023/03/12 09:32:20;;;;;;;32.25;14.60;;;;;;;8.53;100.00;100784.13;5037055;28;20021;-61
2023/03/12 09:34:46;;;;;;;30.20;14.77;;;;;;;8.62;100.00;100779.56;5037993;28;20520;-60
2023/03/12 09:37:11;;;;;;;34.88;13.77;;;;;;;8.62;100.00;100783.06;5037774;28;20025;-59
2023/03/12 09:39:37;;;;;;;30.52;13.88;;;;;;;8.78;100.00;100783.50;5040272;28;20040;-59
2023/03/12 09:42:04;;;;;;;35.05;13.05;;;;;;;8.92;100.00;100785.75;5047218;28;20481;-62
2023/03/12 09:44:34;;;;;;;35.42;10.60;;;;;;;9.03;100.00;100787.22;5021993;28;20030;-60
2023/03/12 09:47:06;;;;;;;26.85;8.85;;;;;;;9.20;100.00;100790.22;5032351;28;20029;-60
2023/03/12 09:49:45;;;;;;;26.02;8.75;;;;;;;9.21;100.00;100793.69;5029747;28;20028;-60
2023/03/12 09:52:21;;;;;;;38.17;9.07;;;;;;;9.27;100.00;100796.16;5047055;28;20048;-62
2023/03/12 09:54:55;;;;;;;34.92;6.75;;;;;;;9.40;100.00;100788.78;5028083;28;20024;-61
2023/03/12 09:57:23;;;;;;;25.40;6.30;;;;;;;9.52;100.00;100791.94;5024377;28;20041;-61
2023/03/12 09:59:49;;;;;;;28.83;6.20;;;;;;;9.70;100.00;100786.09;5036011;28;20028;-62
2023/03/12 10:02:38;;;;;;;36.47;6.93;;;;;;;9.96;100.00;100783.56;5045268;28;20065;-62
2023/03/12 10:05:24;;;;;;;29.23;5.97;;;;;;;10.21;100.00;100788.03;5044680;28;20056;-60
2023/03/12 10:08:26;;;;;;;34.78;6.15;;;;;;;10.30;100.00;100776.31;5046355;28;20024;-62
2023/03/12 10:11:02;;;;;;;36.10;6.55;;;;;;;10.40;100.00;100793.53;5044025;28;20045;-60
2023/03/12 10:13:52;;;;;;;30.48;5.75;;;;;;;10.57;100.00;100795.59;5046044;28;20175;-61
2023/03/12 10:16:36;;;;;;;28.65;5.63;;;;;;;10.78;100.00;100806.34;5019391;28;20039;-61
2023/03/12 10:19:05;;;;;;;26.58;4.50;;;;;;;10.69;100.00;100788.22;5040280;28;20456;-60
2023/03/12 10:22:06;;;;;;;26.05;5.82;;;;;;;10.53;100.00;100791.38;5029370;28;20111;-60
2023/03/12 10:24:50;;;;;;;31.05;7.03;;;;;;;10.48;100.00;100793.31;5014438;28;20033;-62
2023/03/12 10:27:17;;;;;;;23.73;5.35;;;;;;;10.58;100.00;100796.47;5042356;28;20017;-62
2023/03/12 10:29:43;;;;;;;36.97;5.93;;;;;;;10.79;100.00;100797.50;5046650;28;20124;-59
2023/03/12 10:32:09;;;;;;;38.60;7.32;;;;;;;10.83;100.00;100795.59;5021935;28;20299;-63
2023/03/12 10:34:48;;;;;;;39.40;6.72;;;;;;;10.80;100.00;100790.44;5035458;28;20052;-61
2023/03/12 10:37:24;;;;;;;39.20;6.80;;;;;;;10.65;100.00;100791.88;5022138;28;20083;-61
2023/03/12 10:39:50;;;;;;;45.40;6.32;;;;;;;10.68;100.00;100791.75;5048246;28;20481;-59
2023/03/12 10:42:23;;;;;;;36.67;6.40;;;;;;;10.55;100.00;100805.34;5048018;28;20063;-60
2023/03/12 10:45:00;;;;;;;44.83;6.18;;;;;;;10.23;100.00;100804.63;5047061;28;20716;-61
2023/03/12 10:47:44;;;;;;;30.25;6.25;;;;;;;10.42;100.00;100806.66;5028660;28;20083;-60
2023/03/12 10:50:16;;;;;;;34.55;6.25;;;;;;;10.50;100.00;100804.63;5029174;28;20055;-60
2023/03/12 10:52:42;;;;;;;47.15;6.43;;;;;;;10.35;100.00;100812.13;5047575;28;20107;-60
2023/03/12 10:55:31;;;;;;;30.80;6.22;;;;;;;10.23;100.00;100810.75;5028175;28;20797;-60
2023/03/12 10:57:56;;;;;;;32.15;5.55;;;;;;;10.29;100.00;100809.69;5033822;28;20481;-59
2023/03/12 11:00:24;;;;;;;39.35;6.82;;;;;;;10.15;100.00;100815.44;5048354;28;20032;-59
2023/03/12 11:03:17;;;;;;;35.47;7.80;;;;;;;10.17;100.00;100818.00;5047242;28;20405;-59
2023/03/12 11:05:47;;;;;;;33.17;4.95;;;;;;;10.02;100.00;100845.69;5029380;28;20035;-60
2023/03/12 11:08:28;;;;;;;42.72;7.07;;;;;;;9.98;100.00;100844.91;5026827;28;20361;-59
2023/03/12 11:10:54;;;;;;;47.20;7.13;;;;;;;9.89;100.00;100845.19;5032524;28;20048;-60
2023/03/12 11:13:36;;;;;;;37.15;5.68;;;;;;;9.86;100.00;100844.41;5041655;28;20055;-59
2023/03/12 11:16:23;;;;;;;33.60;4.75;;;;;;;10.00;100.00;100840.47;5042576;28;20531;-58
2023/03/12 11:19:00;;;;;;;27.63;4.75;;;;;;;10.05;100.00;100842.97;5042684;28;20120;-61
2023/03/12 11:21:26;;;;;;;38.83;6.40;;;;;;;10.27;100.00;100831.72;5032555;28;20033;-58